Station: Bendigo  

  Atmospheric Gas Attenuation - ITU Rec 676-11   ----------------- dB/100km -----------------
Date Time Temp RH % AH g/m3 Dew Point Wind Direction Speed kph Gust kph Barometer mB Rainfall Since 9am 24GHz 47GHz 76GHz 122GHz 134GHz 241GHz
08/05 12:30 15.7 63 8.43 8.7 24 41 1023.5 0 19.1 25.5 38.6 101.2 94.7 325.5
08/05 12:20 16.7 62 8.81 9.4 26 30 1023.6 0 19.9 25.8 39.6 103.9 98.3 338.5
08/05 12:10 16 67 9.13 9.9 15 19 1023.7 0 20.6 26.5 41.3 108.3 103.4 356.2
08/05 12:00 15.6 65 8.64 9.1 24 44 1024 0 19.6 25.8 39.5 103.6 97.5 335.6
08/05 11:50 15.7 69 9.23 10 20 32 1023.8 0 20.8 26.8 41.8 109.8 105.1 362.2
08/05 11:40 15.1 69 8.9 9.5 26 30 1023.7 0 20.2 26.4 40.8 107.0 101.6 349.6
08/05 11:30 15.7 68 9.1 9.8 24 35 1023.7 0 20.5 26.5 41.3 108.3 103.4 356.1
08/05 11:20 15.5 69 9.12 9.8 22 28 1023.5 0 20.6 26.6 41.5 108.8 103.9 357.9
08/05 11:10 14.6 72 9.01 9.6 32 37 1023.5 0 20.4 26.7 41.5 108.9 103.7 356.9
08/05 11:00 14.7 74 9.32 10.1 17 28 1023.6 0 21.1 27.2 42.7 112.1 107.7 371.0
08/05 10:50 14.3 74 9.09 9.7 26 32 1023.5 0 20.6 26.9 42.0 110.2 105.1 362.0
08/05 10:40 14 75 9.05 9.6 24 30 1023.5 0 20.5 27.0 42.0 110.1 105.0 361.5
08/05 10:30 13.7 79 9.36 10.1 20 30 1023.6 0 21.2 27.6 43.4 114.0 109.6 377.7
08/05 10:20 13.6 79 9.3 10 15 17 1023.5 0 21.1 27.5 43.2 113.5 109.0 375.3
08/05 10:10 13.4 79 9.18 9.8 20 22 1023.5 0 20.8 27.4 42.8 112.4 107.6 370.5
08/05 10:00 13.2 80 9.19 9.8 20 32 1023.7 0 20.9 27.4 43.0 112.8 108.0 372.0
08/05 09:50 13 84 9.53 10.4 19 22 1023.5 0 21.6 28.1 44.5 116.9 113.0 389.3
08/05 09:40 12.7 84 9.35 10.1 17 19 1023.6 0 21.2 27.9 43.9 115.4 110.9 382.1
08/05 09:30 12.6 84 9.29 10 22 33 1024.1 0 21.1 27.8 43.8 114.9 110.3 379.8
08/05 09:20 12.8 82 9.19 9.8 20 26 1023.7 0 20.9 27.6 43.2 113.4 108.6 373.9
08/05 09:10 12.7 81 9.02 9.5 22 26 1023.6 0 20.5 27.3 42.6 111.7 106.4 366.2
08/05 09:00 12.6 83 9.18 9.8 22 35 1023.4 0 20.9 27.6 43.3 113.6 108.7 374.3
08/05 08:50 12.2 84 9.07 9.6 32 35 1023 0.4 20.7 27.5 43.0 112.9 107.7 370.8
08/05 08:40 12.1 84 9.01 9.5 26 37 1023 0.4 20.5 27.5 42.8 112.3 107.0 368.3
08/05 08:30 11.5 89 9.19 9.8 17 26 1023.3 0.4 21.0 28.0 43.9 115.3 110.4 380.1
08/05 08:20 11.1 91 9.17 9.7 19 22 1023 0.4 20.9 28.0 44.0 115.6 110.7 381.0
08/05 08:10 10.9 92 9.15 9.7 11 15 1023 0.4 20.9 28.1 44.1 115.7 110.7 381.0
08/05 08:00 10.8 93 9.19 9.7 13 20 1023 0.4 21.0 28.2 44.3 116.3 111.4 383.4
08/05 07:50 10.6 93 9.08 9.5 15 20 1022.8 0.4 20.8 28.0 43.9 115.3 110.1 378.9
08/05 07:40 10.5 94 9.12 9.6 13 20 1022.8 0.4 20.9 28.1 44.2 115.9 110.8 381.4
08/05 07:30 10.4 94 9.06 9.5 13 19 1022.8 0.4 20.7 28.1 44.0 115.4 110.1 378.9
08/05 07:20 10.3 95 9.1 9.5 13 15 1022.6 0.4 20.8 28.2 44.2 116.0 110.8 381.3
08/05 07:10 10.3 95 9.1 9.5 15 17 1022.5 0.4 20.8 28.2 44.2 116.0 110.8 381.3
08/05 07:00 10.1 95 8.99 9.3 15 20 1022.7 0.4 20.6 28.0 43.8 115.0 109.5 376.9
08/05 06:50 10 95 8.93 9.2 13 17 1022.5 0.4 20.5 28.0 43.6 114.4 108.8 374.3
08/05 06:40 10.1 95 8.99 9.3 15 17 1022.4 0.4 20.6 28.0 43.8 115.0 109.5 376.8
08/05 06:30 9.9 95 8.87 9.1 15 20 1022.5 0.4 20.4 27.9 43.4 113.9 108.1 371.8
08/05 06:20 9.9 95 8.87 9.1 15 17 1022.3 0.4 20.4 27.9 43.4 113.9 108.1 371.8
08/05 06:10 9.7 95 8.76 8.9 13 15 1022.4 0.4 20.1 27.8 43.0 112.9 106.8 367.3
08/05 06:00 9.7 95 8.76 8.9 13 20 1022.5 0.4 20.1 27.8 43.0 112.9 106.8 367.3
08/05 05:50 9.8 95 8.82 9 11 13 1022.4 0.4 20.3 27.8 43.2 113.5 107.5 369.8
08/05 05:40 9.9 95 8.87 9.1 13 15 1022.4 0.4 20.4 27.9 43.4 113.9 108.1 371.8
08/05 05:30 9.9 95 8.87 9.1 13 15 1022.5 0 20.4 27.9 43.4 113.9 108.1 371.8
08/05 05:20 9.9 94 8.78 9 13 15 1022.2 0 20.2 27.7 43.0 112.8 106.8 367.3
08/05 05:10 9.9 93 8.69 8.8 11 11 1022 0 20.0 27.6 42.6 111.8 105.5 362.8
08/05 05:00 9.9 92 8.59 8.7 13 17 1022 0 19.8 27.4 42.2 110.6 104.1 357.9
08/05 04:50 10 91 8.55 8.6 13 17 1021.7 0 19.7 27.3 41.9 110.0 103.4 355.4
08/05 04:40 10 91 8.55 8.6 15 17 1021.7 0 19.7 27.3 41.9 110.0 103.4 355.4
08/05 04:30 9.9 90 8.41 8.3 15 20 1021.7 0 19.4 27.1 41.4 108.6 101.6 349.0
08/05 04:20 10 89 8.36 8.3 13 17 1021.3 0 19.3 26.9 41.1 107.8 100.7 346.0
08/05 04:10 10.1 88 8.32 8.2 19 24 1021.3 0 19.2 26.8 40.9 107.2 100.0 343.6
08/05 04:00 10.1 86 8.13 7.9 17 22 1021.5 0 18.8 26.5 40.1 105.1 97.4 334.5
08/05 03:50 10.1 87 8.23 8 19 20 1021.2 0 19.0 26.7 40.5 106.2 98.8 339.2
08/05 03:40 10 87 8.18 7.9 19 20 1021.1 0 18.9 26.6 40.4 105.8 98.2 337.2
08/05 03:30 10 86 8.08 7.8 17 26 1021.3 0 18.6 26.5 39.9 104.7 96.9 332.5
08/05 03:20 10.1 84 7.95 7.5 17 20 1021.4 0 18.4 26.2 39.4 103.1 95.0 325.8
08/05 03:10 10 84 7.9 7.4 13 15 1021.4 0 18.3 26.2 39.2 102.7 94.4 323.9
08/05 03:00 9.9 83 7.75 7.2 15 19 1021.7 0 17.9 26.0 38.6 101.2 92.5 317.2
08/05 02:50 9.8 84 7.8 7.2 15 19 1021.6 0 18.1 26.1 38.9 101.9 93.3 320.0
08/05 02:40 9.8 84 7.8 7.2 13 15 1021.8 0 18.1 26.1 38.9 101.9 93.3 320.0
08/05 02:30 9.8 83 7.7 7.1 17 22 1022.1 0 17.8 25.9 38.5 100.8 92.0 315.3
08/05 02:20 9.7 84 7.75 7.1 15 19 1022.1 0 18.0 26.0 38.8 101.5 92.8 318.1
08/05 02:10 9.9 81 7.56 6.8 17 20 1022.1 0 17.5 25.7 37.9 99.2 90.0 308.3
08/05 02:00 10.1 77 7.28 6.3 17 24 1022.2 0 16.9 25.1 36.7 95.9 86.0 294.4
08/05 01:50 10 76 7.14 6 19 22 1022 0 16.6 24.9 36.1 94.5 84.2 288.2
08/05 01:40 10 76 7.14 6 17 20 1022.1 0 16.6 24.9 36.1 94.5 84.2 288.3
08/05 01:30 10.2 74 7.04 5.8 19 26 1022.5 0 16.4 24.7 35.7 93.2 82.7 283.0
08/05 01:20 10.3 74 7.09 5.9 17 20 1022.4 0 16.5 24.8 35.8 93.6 83.3 284.9
08/05 01:10 10.3 73 6.99 5.7 20 22 1022.4 0 16.3 24.6 35.4 92.6 82.0 280.3
08/05 01:00 10 74 6.96 5.6 22 32 1022.6 0 16.2 24.7 35.4 92.6 81.9 280.0
08/05 00:50 10 74 6.96 5.6 24 30 1022.3 0 16.2 24.7 35.4 92.6 81.9 280.0
08/05 00:40 10 74 6.96 5.6 20 24 1022.4 0 16.2 24.7 35.4 92.6 81.9 280.0
08/05 00:30 9.9 74 6.91 5.5 20 28 1022.5 0 16.1 24.6 35.3 92.2 81.3 278.1
08/05 00:20 9.7 75 6.92 5.5 20 26 1022.3 0 16.2 24.7 35.4 92.5 81.7 279.2
08/05 00:10 9.9 75 7 5.7 24 30 1022.5 0 16.3 24.8 35.6 93.1 82.5 282.2
08/05 00:00 9.8 75 6.96 5.6 20 30 1022.9 0 16.3 24.7 35.5 92.9 82.1 280.8
07/05 23:50 9.7 75 6.92 5.5 22 26 1022.7 0 16.2 24.7 35.4 92.5 81.7 279.3
07/05 23:40 9.8 74 6.87 5.4 22 26 1022.7 0 16.1 24.6 35.2 91.9 80.9 276.6
07/05 23:30 10 74 6.96 5.6 20 30 1023.1 0 16.2 24.7 35.5 92.7 81.9 280.2
07/05 23:20 10 74 6.96 5.6 19 22 1023 0 16.2 24.7 35.5 92.6 81.9 280.1
07/05 23:10 10 74 6.96 5.6 19 22 1023 0 16.2 24.7 35.5 92.6 81.9 280.1
07/05 23:00 9.9 75 7 5.7 19 24 1023.3 0 16.3 24.8 35.7 93.2 82.6 282.4
07/05 22:50 9.9 75 7 5.7 17 22 1023.1 0 16.3 24.8 35.7 93.2 82.6 282.4
07/05 22:40 9.7 75 6.92 5.5 15 17 1023.1 0 16.2 24.7 35.4 92.6 81.7 279.4
07/05 22:30 9.7 75 6.92 5.5 15 20 1023.4 0 16.2 24.7 35.4 92.6 81.7 279.5
07/05 22:20 10 74 6.96 5.6 19 20 1023.3 0 16.2 24.7 35.5 92.7 81.9 280.2
07/05 22:10 10.2 73 6.95 5.6 20 24 1023.3 0 16.2 24.6 35.3 92.3 81.6 279.0
07/05 22:00 10.1 73 6.9 5.5 19 28 1023.6 0 16.1 24.6 35.2 92.0 81.1 277.2
07/05 21:50 10.1 73 6.9 5.5 17 20 1023.5 0 16.1 24.6 35.2 91.9 81.1 277.1
07/05 21:40 10 73 6.86 5.4 19 26 1023.4 0 16.0 24.5 35.1 91.6 80.6 275.6
07/05 21:30 10.2 73 6.95 5.6 15 28 1023.8 0 16.2 24.6 35.4 92.4 81.6 279.2
07/05 21:20 10.1 73 6.9 5.5 13 15 1023.8 0 16.1 24.6 35.2 92.0 81.1 277.2
07/05 21:10 10.1 73 6.9 5.5 13 15 1023.8 0 16.1 24.6 35.2 92.0 81.1 277.2
07/05 21:00 10 73 6.86 5.4 13 17 1024 0 16.0 24.6 35.1 91.7 80.7 275.8
07/05 20:50 10 73 6.86 5.4 13 15 1023.8 0 16.0 24.6 35.1 91.7 80.7 275.7
07/05 20:40 10 73 6.86 5.4 15 17 1023.9 0 16.0 24.6 35.1 91.7 80.7 275.7
07/05 20:30 9.8 73 6.77 5.2 13 17 1024.1 0 15.8 24.5 34.8 91.0 79.7 272.3
07/05 20:20 9.9 73 6.82 5.3 15 17 1023.8 0 16.0 24.5 35.0 91.4 80.2 274.2
07/05 20:10 9.9 74 6.91 5.5 11 13 1024 0 16.1 24.7 35.3 92.3 81.4 278.4
07/05 20:00 9.9 74 6.91 5.5 13 17 1024.2 0 16.1 24.7 35.3 92.3 81.5 278.5

Last Refresh: 08-May-2026 12:07:29

Bureau of Meteorology